Time;durP1;ratioP1;P1;durP2;ratioP2;P2;SDS_P1;SDS_P2;PMS_P1;PMS_P2;Temp;Humidity;BMP_temperature;BMP_pressure;BME280_temperature;BME280_humidity;BME280_pressure;Samples;Min_cycle;Max_cycle;Signal;HPM_P1;HPM_P2
2023/01/10 00:01:28;;;;;;;44.90;26.90;;;;;;;6.85;89.21;99557.13;108717;1271;37199;-75
2023/01/10 00:04:03;;;;;;;42.50;26.70;;;;;;;6.85;89.40;99562.00;108564;1260;37343;-74
2023/01/10 00:06:39;;;;;;;45.00;26.70;;;;;;;6.86;89.37;99563.84;108637;1254;35987;-75
2023/01/10 00:09:17;;;;;;;45.70;27.10;;;;;;;6.86;89.29;99564.73;108715;1276;36873;-74
2023/01/10 00:15:01;;;;;;;47.70;27.80;;;;;;;6.84;89.27;99566.69;108228;1267;36137;-74
2023/01/10 00:17:36;;;;;;;48.80;28.40;;;;;;;6.85;89.48;99564.92;108242;1257;36980;-74
2023/01/10 00:20:13;;;;;;;42.10;26.50;;;;;;;6.87;89.53;99568.34;108356;1274;38880;-72
2023/01/10 00:22:49;;;;;;;46.70;28.30;;;;;;;6.87;89.59;99575.98;108690;1276;37681;-74
2023/01/10 00:25:23;;;;;;;45.20;26.60;;;;;;;6.89;89.53;99575.20;108707;1257;36305;-72
2023/01/10 00:28:01;;;;;;;45.10;27.00;;;;;;;6.91;89.44;99582.73;108636;1257;37106;-73
2023/01/10 00:30:36;;;;;;;44.70;27.80;;;;;;;6.91;89.34;99590.20;108592;1267;37274;-75
2023/01/10 00:33:18;;;;;;;52.70;28.70;;;;;;;6.90;89.30;99596.46;108675;1254;38962;-76
2023/01/10 00:35:56;;;;;;;49.70;26.90;;;;;;;6.88;89.27;99599.64;108018;1276;908634;-77
2023/01/10 00:38:35;;;;;;;45.90;27.70;;;;;;;6.88;89.28;99602.98;108641;1273;37282;-76
2023/01/10 00:43:55;;;;;;;45.50;27.20;;;;;;;6.86;89.41;99606.00;108706;1265;37597;-77
2023/01/10 00:44:17;;;;;;;44.60;26.90;;;;;;;6.86;89.36;99611.88;108669;1257;36819;-77
2023/01/10 00:47:02;;;;;;;48.80;28.10;;;;;;;6.89;89.51;99615.05;108596;1259;37366;-74
2023/01/10 00:49:41;;;;;;;45.50;26.70;;;;;;;6.92;89.53;99621.18;108598;1276;36430;-74
2023/01/10 00:52:18;;;;;;;47.10;28.30;;;;;;;6.93;89.40;99625.84;108694;1254;37267;-74
2023/01/10 00:54:54;;;;;;;46.10;26.80;;;;;;;6.92;89.40;99625.55;108695;1252;36373;-73
2023/01/10 00:57:34;;;;;;;52.60;30.00;;;;;;;6.89;89.23;99634.30;108673;1260;37059;-74
2023/01/10 01:00:12;;;;;;;47.50;28.20;;;;;;;6.87;89.34;99634.73;108708;1272;37217;-74
2023/01/10 01:02:51;;;;;;;52.50;31.00;;;;;;;6.86;89.19;99637.73;108642;1276;37589;-75
2023/01/10 01:05:28;;;;;;;47.60;28.80;;;;;;;6.87;89.49;99639.77;108661;1276;36992;-75
2023/01/10 01:08:02;;;;;;;50.20;29.10;;;;;;;6.88;89.49;99644.73;108533;1276;37304;-77
2023/01/10 01:10:40;;;;;;;54.00;30.30;;;;;;;6.88;89.47;99649.94;108693;1257;37037;-75
2023/01/10 01:13:19;;;;;;;49.90;27.90;;;;;;;6.87;89.44;99650.86;108571;1276;37594;-75
2023/01/10 01:15:59;;;;;;;51.00;28.50;;;;;;;6.85;89.37;99650.91;108635;1258;37125;-77
2023/01/10 01:18:34;;;;;;;48.90;29.50;;;;;;;6.81;89.20;99649.84;108651;1271;37162;-75
2023/01/10 01:21:15;;;;;;;54.70;31.20;;;;;;;6.79;89.42;99654.92;108656;1254;38321;-77
2023/01/10 01:23:50;;;;;;;52.30;31.30;;;;;;;6.80;89.60;99655.09;108657;1276;37341;-74
2023/01/10 01:26:27;;;;;;;53.60;31.00;;;;;;;6.79;89.58;99655.45;108572;1256;37731;-76
2023/01/10 01:29:04;;;;;;;56.10;32.00;;;;;;;6.78;89.39;99660.52;108528;1260;36198;-77
2023/01/10 01:31:42;;;;;;;53.20;29.80;;;;;;;6.73;89.52;99662.24;108468;1278;37962;-76
2023/01/10 01:34:19;;;;;;;53.00;28.70;;;;;;;6.76;89.81;99660.45;108357;1259;36278;-76
2023/01/10 01:36:55;;;;;;;54.70;32.40;;;;;;;6.78;89.74;99669.21;108514;1278;38259;-75
2023/01/10 01:39:31;;;;;;;54.10;30.80;;;;;;;6.79;89.78;99671.95;108469;1268;38490;-76
2023/01/10 01:42:20;;;;;;;57.10;31.50;;;;;;;6.80;89.84;99679.19;108517;1254;37027;-73
2023/01/10 01:45:39;;;;;;;55.40;30.50;;;;;;;6.80;90.01;99676.39;108521;1270;37117;-73
2023/01/10 01:48:35;;;;;;;47.90;28.70;;;;;;;6.82;89.85;99683.27;108530;1258;37122;-72
2023/01/10 01:51:13;;;;;;;49.90;30.70;;;;;;;6.84;89.88;99686.14;108534;1270;37066;-76
2023/01/10 01:53:50;;;;;;;50.00;28.50;;;;;;;6.83;89.77;99691.73;107842;1277;908834;-77
2023/01/10 01:56:38;;;;;;;52.80;29.70;;;;;;;6.83;89.67;99695.89;108567;1259;36976;-77
2023/01/10 01:59:15;;;;;;;50.40;29.80;;;;;;;6.81;89.80;99693.54;108489;1278;37024;-76
2023/01/10 02:01:55;;;;;;;50.60;29.40;;;;;;;6.81;89.73;99693.90;108378;1278;36976;-76
2023/01/10 02:04:32;;;;;;;56.00;31.90;;;;;;;6.81;89.79;99688.51;108494;1265;36990;-75
2023/01/10 02:07:10;;;;;;;57.60;33.00;;;;;;;6.85;89.90;99689.61;108499;1277;36920;-77
2023/01/10 02:09:49;;;;;;;52.20;30.70;;;;;;;6.87;89.86;99692.98;108530;1278;38322;-78
2023/01/10 02:12:23;;;;;;;58.20;32.20;;;;;;;6.86;89.80;99695.27;108469;1271;36629;-77
2023/01/10 02:15:00;;;;;;;57.00;31.30;;;;;;;6.86;89.91;99699.61;108398;1267;37091;-75
2023/01/10 02:17:34;;;;;;;55.30;31.10;;;;;;;6.84;89.74;99703.99;108390;1264;36514;-74
2023/01/10 02:20:13;;;;;;;51.10;29.90;;;;;;;6.85;89.80;99709.89;108509;1278;36820;-75
2023/01/10 02:23:23;;;;;;;50.50;29.70;;;;;;;6.87;89.97;99715.17;108527;1277;36960;-75
2023/01/10 02:26:54;;;;;;;54.90;30.90;;;;;;;6.88;89.97;99713.94;108364;1273;37100;-74
2023/01/10 02:30:00;;;;;;;55.70;29.70;;;;;;;6.86;89.76;99718.16;108340;1269;37137;-75
2023/01/10 02:32:43;;;;;;;56.70;31.20;;;;;;;6.85;89.83;99727.05;108508;1260;38055;-74
2023/01/10 02:35:32;;;;;;;54.30;30.90;;;;;;;6.89;90.12;99730.19;108467;1258;36139;-76
2023/01/10 02:38:17;;;;;;;55.40;31.90;;;;;;;6.88;89.81;99727.27;108380;1279;37142;-76
2023/01/10 02:40:55;;;;;;;57.30;33.00;;;;;;;6.88;89.83;99722.92;108399;1267;36968;-76
2023/01/10 02:43:35;;;;;;;54.90;31.70;;;;;;;6.87;89.85;99728.52;108248;1260;174829;-75
2023/01/10 02:46:13;;;;;;;54.70;31.90;;;;;;;6.84;89.66;99730.00;108433;1267;36772;-74
2023/01/10 02:48:48;;;;;;;52.90;30.60;;;;;;;6.81;89.71;99732.52;108392;1274;36975;-75
2023/01/10 02:51:28;;;;;;;56.20;32.60;;;;;;;6.80;89.81;99730.32;108388;1255;36323;-76
2023/01/10 02:54:08;;;;;;;54.80;32.30;;;;;;;6.79;89.85;99730.16;108302;1279;37376;-74
2023/01/10 02:57:24;;;;;;;61.50;33.60;;;;;;;6.80;89.85;99728.92;107678;1279;910517;-76
2023/01/10 03:00:14;;;;;;;59.70;32.50;;;;;;;6.75;89.85;99729.60;108392;1279;36363;-76
2023/01/10 03:03:14;;;;;;;61.60;33.30;;;;;;;6.74;89.84;99733.10;108293;1279;37075;-76
2023/01/10 03:06:06;;;;;;;58.70;32.30;;;;;;;6.75;90.05;99734.80;108443;1259;36214;-75
2023/01/10 03:08:44;;;;;;;59.40;33.60;;;;;;;6.74;89.97;99739.35;108404;1267;37181;-74
2023/01/10 03:11:38;;;;;;;56.60;33.00;;;;;;;6.75;90.10;99738.11;108361;1264;36448;-76
2023/01/10 03:14:22;;;;;;;61.90;34.60;;;;;;;6.75;90.21;99740.00;108240;1276;174875;-77
2023/01/10 03:17:04;;;;;;;62.80;33.90;;;;;;;6.74;90.02;99736.56;108282;1279;187665;-73
2023/01/10 03:19:44;;;;;;;61.80;33.70;;;;;;;6.72;90.01;99735.95;108449;1260;37115;-75
2023/01/10 03:22:19;;;;;;;55.50;30.60;;;;;;;6.73;90.24;99740.76;108367;1261;37037;-74
2023/01/10 03:25:00;;;;;;;55.30;31.50;;;;;;;6.71;90.11;99744.45;108294;1257;37241;-73
2023/01/10 03:27:44;;;;;;;55.60;32.20;;;;;;;6.68;89.97;99746.14;108400;1260;37595;-72
2023/01/10 03:30:26;;;;;;;54.60;32.70;;;;;;;6.68;90.04;99745.10;108494;1263;37242;-74
2023/01/10 03:33:05;;;;;;;54.00;31.40;;;;;;;6.65;89.98;99743.96;108532;1269;36679;-75
2023/01/10 03:35:50;;;;;;;57.00;31.00;;;;;;;6.65;90.23;99745.36;108534;1264;37533;-72
2023/01/10 03:38:33;;;;;;;51.90;30.70;;;;;;;6.66;90.27;99749.14;108559;1276;37728;-73
2023/01/10 03:41:12;;;;;;;54.70;31.90;;;;;;;6.64;90.23;99754.56;108567;1261;38865;-77
2023/01/10 03:46:46;;;;;;;60.70;34.00;;;;;;;6.65;90.30;99756.80;108569;1254;36125;-74
2023/01/10 03:49:21;;;;;;;57.10;31.80;;;;;;;6.63;90.30;99755.29;108362;1260;39072;-72
2023/01/10 03:51:57;;;;;;;53.10;30.60;;;;;;;6.64;90.36;99758.73;108552;1265;37002;-72
2023/01/10 03:54:40;;;;;;;55.50;31.60;;;;;;;6.63;90.38;99763.26;108496;1254;37070;-75
2023/01/10 03:57:23;;;;;;;57.00;32.50;;;;;;;6.66;90.69;99768.39;108596;1276;36709;-76
2023/01/10 04:00:00;;;;;;;56.00;31.20;;;;;;;6.67;90.59;99772.16;108603;1276;37117;-77
2023/01/10 04:02:37;;;;;;;58.90;33.20;;;;;;;6.67;90.42;99774.60;108525;1276;37061;-76
2023/01/10 04:05:13;;;;;;;60.00;32.40;;;;;;;6.65;90.42;99771.36;108551;1271;37351;-75
2023/01/10 04:07:48;;;;;;;54.80;31.50;;;;;;;6.64;90.42;99774.33;108508;1259;37214;-77
2023/01/10 04:10:25;;;;;;;54.40;31.70;;;;;;;6.66;90.51;99781.37;108534;1257;37119;-75
2023/01/10 04:13:02;;;;;;;54.40;31.80;;;;;;;6.68;90.47;99788.06;108534;1259;38897;-75
2023/01/10 04:15:37;;;;;;;56.30;33.20;;;;;;;6.72;90.50;99791.08;108591;1258;37575;-77
2023/01/10 04:18:15;;;;;;;58.20;33.10;;;;;;;6.72;90.67;99796.07;108543;1277;37054;-77
2023/01/10 04:20:56;;;;;;;53.90;31.30;;;;;;;6.71;90.29;99801.85;108571;1257;37220;-73
2023/01/10 04:23:35;;;;;;;57.90;33.00;;;;;;;6.66;90.12;99807.02;108552;1276;36418;-75
2023/01/10 04:26:10;;;;;;;49.10;30.00;;;;;;;6.65;90.03;99814.00;108553;1265;37005;-74
2023/01/10 04:28:47;;;;;;;53.70;32.10;;;;;;;6.63;90.04;99820.11;108793;1274;37415;-73
2023/01/10 04:31:22;;;;;;;51.20;31.60;;;;;;;6.64;90.18;99823.73;108766;1275;37489;-73
2023/01/10 04:34:01;;;;;;;58.70;33.30;;;;;;;6.67;90.58;99830.76;108827;1262;38051;-74
2023/01/10 04:36:39;;;;;;;58.60;31.70;;;;;;;6.69;90.37;99832.06;108814;1255;38545;-74
2023/01/10 04:39:14;;;;;;;53.20;30.40;;;;;;;6.69;90.38;99833.98;108801;1257;36955;-76
2023/01/10 04:41:48;;;;;;;50.70;30.40;;;;;;;6.67;89.98;99831.77;108861;1255;37046;-74
2023/01/10 04:44:27;;;;;;;52.10;30.80;;;;;;;6.65;89.86;99835.48;108772;1274;36536;-74
2023/01/10 04:47:05;;;;;;;52.90;31.10;;;;;;;6.65;90.06;99846.73;108834;1274;37598;-75
2023/01/10 04:49:39;;;;;;;51.90;30.90;;;;;;;6.64;89.99;99852.33;108824;1274;37206;-74
2023/01/10 04:52:14;;;;;;;53.20;31.60;;;;;;;6.61;90.05;99857.27;108826;1274;37094;-74
2023/01/10 04:54:54;;;;;;;51.50;28.80;;;;;;;6.62;90.09;99863.50;108851;1274;37554;-76
2023/01/10 04:57:36;;;;;;;51.60;29.80;;;;;;;6.61;90.07;99872.36;108868;1274;38934;-77
2023/01/10 05:00:14;;;;;;;53.30;31.00;;;;;;;6.63;90.22;99878.54;108791;1274;38420;-75
2023/01/10 05:02:56;;;;;;;49.70;30.50;;;;;;;6.64;90.19;99879.70;108814;1274;36577;-77
2023/01/10 05:05:31;;;;;;;53.40;31.80;;;;;;;6.65;90.34;99883.85;108813;1260;36830;-74
2023/01/10 05:08:08;;;;;;;52.70;31.90;;;;;;;6.63;90.13;99883.39;108844;1274;37418;-74
2023/01/10 05:10:45;;;;;;;52.70;30.80;;;;;;;6.59;89.93;99884.55;108875;1274;36309;-74
2023/01/10 05:13:20;;;;;;;49.20;29.50;;;;;;;6.58;89.93;99891.69;108655;1264;174868;-75
2023/01/10 05:16:02;;;;;;;53.50;30.70;;;;;;;6.57;89.91;99898.81;108844;1274;37207;-72
2023/01/10 05:18:37;;;;;;;52.70;31.50;;;;;;;6.56;90.12;99905.25;108750;1274;36952;-73
2023/01/10 05:21:22;;;;;;;55.40;32.20;;;;;;;6.57;90.20;99910.95;108809;1271;36990;-73
2023/01/10 05:24:01;;;;;;;55.00;31.90;;;;;;;6.56;90.30;99912.36;108832;1255;37079;-78
2023/01/10 05:26:44;;;;;;;54.10;30.60;;;;;;;6.56;90.36;99918.61;108871;1274;37011;-76
2023/01/10 05:29:18;;;;;;;55.20;31.90;;;;;;;6.55;90.15;99920.89;108816;1251;37163;-77
2023/01/10 05:31:54;;;;;;;53.10;30.80;;;;;;;6.57;90.47;99921.52;108843;1255;37028;-75
2023/01/10 05:34:32;;;;;;;58.70;33.60;;;;;;;6.60;90.39;99931.48;108857;1274;36145;-74
2023/01/10 05:37:09;;;;;;;60.00;33.80;;;;;;;6.59;90.37;99937.04;108840;1251;36950;-73
2023/01/10 05:39:45;;;;;;;54.50;31.80;;;;;;;6.59;90.30;99942.61;108670;1254;36683;-72
2023/01/10 05:42:22;;;;;;;53.20;29.80;;;;;;;6.57;90.25;99948.91;108873;1255;38552;-75
2023/01/10 05:44:57;;;;;;;48.80;29.50;;;;;;;6.56;90.22;99952.73;108847;1256;37064;-75
2023/01/10 05:47:32;;;;;;;52.00;31.00;;;;;;;6.55;90.32;99958.83;108855;1267;37123;-75
2023/01/10 05:50:13;;;;;;;54.20;32.20;;;;;;;6.55;90.40;99963.17;108852;1274;36203;-74
2023/01/10 05:52:56;;;;;;;59.40;32.90;;;;;;;6.54;90.28;99968.91;108875;1274;36013;-76
2023/01/10 05:55:35;;;;;;;55.50;31.40;;;;;;;6.52;90.29;99972.27;108818;1268;37045;-73
2023/01/10 05:58:12;;;;;;;52.50;31.50;;;;;;;6.49;90.17;99977.90;108819;1252;36992;-75
2023/01/10 06:00:50;;;;;;;50.10;29.40;;;;;;;6.48;90.38;99983.80;108923;1251;37424;-74
2023/01/10 06:03:27;;;;;;;49.90;30.20;;;;;;;6.50;90.44;99990.69;108751;1255;174940;-75
2023/01/10 06:06:03;;;;;;;52.50;30.90;;;;;;;6.51;90.52;99992.76;108845;1271;37080;-74
2023/01/10 06:08:41;;;;;;;52.20;32.40;;;;;;;6.53;90.52;100001.02;108811;1273;37149;-75
2023/01/10 06:11:18;;;;;;;49.30;30.10;;;;;;;6.54;90.55;100007.55;108872;1273;37354;-76
2023/01/10 06:13:57;;;;;;;52.40;31.60;;;;;;;6.55;90.60;100011.52;108839;1254;37090;-75
2023/01/10 06:16:32;;;;;;;50.80;29.30;;;;;;;6.54;90.46;100014.30;108894;1254;37336;-78
2023/01/10 06:19:12;;;;;;;47.80;28.40;;;;;;;6.56;90.42;100015.48;108852;1254;37053;-76
2023/01/10 06:21:50;;;;;;;50.50;31.60;;;;;;;6.55;90.39;100023.30;108913;1254;37066;-76
2023/01/10 06:24:31;;;;;;;51.80;31.50;;;;;;;6.57;90.45;100029.83;108822;1274;36988;-76
2023/01/10 06:27:12;;;;;;;52.60;31.60;;;;;;;6.56;90.45;100025.53;108855;1274;37672;-76
2023/01/10 06:29:55;;;;;;;54.30;31.20;;;;;;;6.56;90.39;100030.89;108864;1262;37624;-79
2023/01/10 06:32:36;;;;;;;48.50;29.90;;;;;;;6.54;90.27;100039.26;108869;1274;36951;-77
2023/01/10 06:35:20;;;;;;;51.50;29.90;;;;;;;6.55;90.37;100044.10;108798;1256;38068;-77
2023/01/10 06:37:54;;;;;;;53.40;31.50;;;;;;;6.54;90.20;100050.55;108876;1254;37146;-78
2023/01/10 06:40:31;;;;;;;52.60;30.10;;;;;;;6.51;90.30;100053.56;108858;1274;36985;-74
2023/01/10 06:43:06;;;;;;;51.80;31.40;;;;;;;6.49;90.28;100062.27;107788;1255;1398389;-75
2023/01/10 06:45:43;;;;;;;51.50;31.20;;;;;;;6.48;90.31;100065.25;108850;1274;36031;-78
2023/01/10 06:48:23;;;;;;;48.00;29.70;;;;;;;6.48;90.26;100067.34;108845;1274;37099;-77
2023/01/10 06:50:59;;;;;;;48.50;29.30;;;;;;;6.47;90.45;100073.08;108796;1251;36962;-76
2023/01/10 06:53:33;;;;;;;49.60;28.90;;;;;;;6.50;90.64;100075.05;108779;1254;36757;-76
2023/01/10 06:56:10;;;;;;;50.70;30.30;;;;;;;6.52;90.44;100080.04;108840;1251;38412;-76
2023/01/10 06:58:45;;;;;;;50.20;30.00;;;;;;;6.51;90.26;100083.55;108804;1262;37104;-76
2023/01/10 07:01:21;;;;;;;47.40;28.90;;;;;;;6.48;90.30;100088.11;108705;1274;174808;-73
2023/01/10 07:03:55;;;;;;;50.20;29.50;;;;;;;6.45;90.12;100088.55;108829;1273;37318;-78
2023/01/10 07:06:33;;;;;;;47.50;28.00;;;;;;;6.46;90.42;100091.83;108197;1251;909980;-73
2023/01/10 07:09:10;;;;;;;44.00;27.20;;;;;;;6.48;90.03;100092.10;108801;1258;36953;-75
2023/01/10 07:11:47;;;;;;;46.10;27.60;;;;;;;6.44;89.93;100092.37;108810;1254;36324;-75
2023/01/10 07:14:23;;;;;;;45.30;27.50;;;;;;;6.46;90.33;100098.23;108830;1254;36542;-74
2023/01/10 07:16:58;;;;;;;44.40;27.00;;;;;;;6.47;90.21;100100.62;108858;1273;37000;-77
2023/01/10 07:19:35;;;;;;;40.10;25.40;;;;;;;6.45;89.97;100108.30;108818;1251;36026;-75
2023/01/10 07:22:16;;;;;;;44.50;27.60;;;;;;;6.44;90.19;100110.58;108826;1262;36964;-74
2023/01/10 07:24:55;;;;;;;44.20;27.20;;;;;;;6.43;90.09;100110.77;108891;1271;36982;-76
2023/01/10 07:27:34;;;;;;;48.70;27.50;;;;;;;6.43;90.12;100111.10;108805;1255;38372;-76
2023/01/10 07:30:12;;;;;;;41.20;25.80;;;;;;;6.39;89.92;100111.74;108860;1251;37155;-75
2023/01/10 07:32:48;;;;;;;42.80;26.20;;;;;;;6.34;89.66;100113.77;108824;1262;37058;-75
2023/01/10 07:35:22;;;;;;;44.20;25.60;;;;;;;6.30;89.85;100119.77;108865;1254;37188;-75
2023/01/10 07:37:59;;;;;;;41.20;26.20;;;;;;;6.29;89.77;100120.14;108799;1254;37727;-75
2023/01/10 07:40:33;;;;;;;40.70;25.90;;;;;;;6.27;89.99;100124.51;108824;1273;37285;-75
2023/01/10 07:43:09;;;;;;;39.50;25.60;;;;;;;6.27;89.92;100127.46;108807;1262;36964;-75
2023/01/10 07:45:45;;;;;;;37.90;24.20;;;;;;;6.27;90.03;100128.86;108811;1265;37070;-73
2023/01/10 07:48:19;;;;;;;35.40;24.20;;;;;;;6.25;89.78;100125.77;108806;1273;37261;-74
2023/01/10 07:51:01;;;;;;;39.30;22.90;;;;;;;6.25;89.87;100128.20;108821;1273;37046;-74
2023/01/10 07:53:36;;;;;;;35.50;23.70;;;;;;;6.26;90.08;100132.52;108824;1273;37056;-73
2023/01/10 07:56:11;;;;;;;40.70;24.10;;;;;;;6.26;89.83;100134.59;108804;1250;37364;-77
2023/01/10 07:58:50;;;;;;;36.40;22.60;;;;;;;6.26;89.90;100135.95;108815;1273;38271;-77
2023/01/10 08:01:24;;;;;;;37.00;23.10;;;;;;;6.26;89.58;100135.30;108934;1256;37799;-79
2023/01/10 08:04:00;;;;;;;34.70;22.00;;;;;;;6.22;89.49;100138.31;108944;1251;35991;-81
2023/01/10 08:06:38;;;;;;;34.80;22.90;;;;;;;6.21;89.45;100145.79;108826;1262;37619;-74
2023/01/10 08:09:12;;;;;;;36.70;23.80;;;;;;;6.20;89.66;100149.08;108828;1254;37056;-75
2023/01/10 08:11:49;;;;;;;38.00;22.90;;;;;;;6.18;89.44;100153.46;108847;1251;36946;-75
2023/01/10 08:14:29;;;;;;;35.50;22.50;;;;;;;6.17;89.37;100155.59;108841;1273;37211;-74
2023/01/10 08:17:08;;;;;;;34.70;21.90;;;;;;;6.17;89.72;100160.06;108792;1273;36327;-76
2023/01/10 08:19:45;;;;;;;34.30;22.30;;;;;;;6.17;89.41;100164.39;108783;1255;37047;-73
2023/01/10 08:22:29;;;;;;;34.90;22.00;;;;;;;6.20;89.56;100166.77;108827;1253;37036;-73
2023/01/10 08:25:10;;;;;;;36.90;22.80;;;;;;;6.22;89.53;100175.04;108702;1264;172706;-76
2023/01/10 08:27:45;;;;;;;36.40;23.20;;;;;;;6.20;89.45;100180.44;108787;1268;37018;-76
2023/01/10 08:30:20;;;;;;;35.00;22.80;;;;;;;6.16;89.20;100182.27;108809;1273;37542;-75
2023/01/10 08:32:57;;;;;;;34.50;22.10;;;;;;;6.13;89.21;100176.98;108815;1273;36447;-75
2023/01/10 08:35:31;;;;;;;36.00;21.60;;;;;;;6.12;89.06;100183.58;108833;1263;38185;-76
2023/01/10 08:38:05;;;;;;;34.70;21.90;;;;;;;6.10;89.09;100188.98;108810;1259;37301;-76
2023/01/10 08:40:43;;;;;;;34.50;22.50;;;;;;;6.12;89.24;100192.08;108829;1259;37110;-76
2023/01/10 08:43:18;;;;;;;36.70;23.70;;;;;;;6.11;89.15;100193.13;108802;1274;36208;-74
2023/01/10 08:45:53;;;;;;;37.90;23.40;;;;;;;6.09;89.04;100195.27;108826;1271;36867;-77
2023/01/10 08:48:35;;;;;;;33.30;20.70;;;;;;;6.07;89.05;100195.83;108778;1274;37495;-77
2023/01/10 08:51:12;;;;;;;34.60;22.20;;;;;;;6.06;89.09;100201.73;108796;1273;36137;-78
2023/01/10 08:53:51;;;;;;;35.20;22.00;;;;;;;6.07;88.88;100204.83;108867;1259;36970;-77
2023/01/10 08:56:31;;;;;;;31.70;21.00;;;;;;;6.06;88.88;100213.16;108891;1254;37726;-74
2023/01/10 08:59:11;;;;;;;35.00;21.20;;;;;;;6.06;88.99;100218.02;108844;1251;37048;-73
2023/01/10 09:01:46;;;;;;;34.70;21.10;;;;;;;6.05;89.11;100222.17;108884;1274;37073;-79
2023/01/10 09:04:27;;;;;;;31.90;20.40;;;;;;;6.07;89.08;100231.31;108889;1251;36298;-78
2023/01/10 09:07:01;;;;;;;36.00;21.80;;;;;;;6.07;88.92;100233.55;108860;1274;37381;-79
2023/01/10 09:09:36;;;;;;;29.80;20.30;;;;;;;6.09;89.19;100231.45;108875;1274;37382;-76
2023/01/10 09:15:01;;;;;;;35.00;21.60;;;;;;;6.14;88.86;100235.99;108820;1274;37359;-77
2023/01/10 09:17:36;;;;;;;34.10;21.00;;;;;;;6.15;89.14;100234.08;108816;1251;37012;-76
2023/01/10 09:20:15;;;;;;;33.20;20.30;;;;;;;6.16;88.79;100240.13;108846;1251;37073;-73
2023/01/10 09:22:53;;;;;;;31.10;20.70;;;;;;;6.18;88.74;100242.68;108872;1262;38050;-75
2023/01/10 09:25:27;;;;;;;34.50;22.40;;;;;;;6.20;88.94;100241.59;108865;1254;37733;-75
2023/01/10 09:28:02;;;;;;;36.30;21.60;;;;;;;6.21;88.71;100243.31;108856;1273;37130;-73
2023/01/10 09:30:41;;;;;;;32.00;20.50;;;;;;;6.21;88.74;100248.66;108836;1254;37129;-77
2023/01/10 09:33:15;;;;;;;34.20;21.10;;;;;;;6.21;88.60;100249.02;108804;1251;38377;-78
2023/01/10 09:35:51;;;;;;;30.60;20.30;;;;;;;6.22;88.77;100249.53;108863;1274;36097;-77
2023/01/10 09:38:26;;;;;;;32.70;21.80;;;;;;;6.24;88.46;100246.36;108856;1262;36059;-77
2023/01/10 09:41:31;;;;;;;34.80;22.10;;;;;;;6.24;88.51;100244.27;108883;1258;37537;-77
2023/01/10 09:44:11;;;;;;;34.90;21.40;;;;;;;6.24;88.62;100242.71;108686;1250;37642;-73
2023/01/10 09:47:01;;;;;;;34.60;20.70;;;;;;;6.26;88.53;100245.45;108959;1262;37118;-77
2023/01/10 09:49:55;;;;;;;33.90;21.30;;;;;;;6.26;88.27;100247.02;108949;1254;37207;-75
2023/01/10 09:52:33;;;;;;;32.60;20.50;;;;;;;6.28;88.49;100247.13;108977;1252;37029;-78
2023/01/10 09:55:19;;;;;;;32.10;22.00;;;;;;;6.30;88.50;100242.58;108876;1274;37174;-76
2023/01/10 09:57:56;;;;;;;31.70;21.10;;;;;;;6.35;88.71;100242.64;108771;1256;37004;-75
2023/01/10 10:00:41;;;;;;;33.00;20.30;;;;;;;6.36;88.41;100242.63;108796;1274;36973;-74
2023/01/10 10:03:24;;;;;;;30.70;20.60;;;;;;;6.38;88.20;100244.83;108769;1258;37370;-77
2023/01/10 10:05:59;;;;;;;34.40;21.00;;;;;;;6.40;88.30;100244.25;108854;1268;38633;-73
2023/01/10 10:08:33;;;;;;;34.90;22.00;;;;;;;6.41;88.24;100244.06;108830;1253;37189;-72
2023/01/10 10:11:36;;;;;;;33.20;21.40;;;;;;;6.44;88.38;100244.17;108861;1274;37560;-77
2023/01/10 10:14:20;;;;;;;31.80;19.40;;;;;;;6.45;88.25;100245.89;108830;1274;37589;-78
2023/01/10 10:17:17;;;;;;;31.40;20.70;;;;;;;6.46;88.11;100249.50;108862;1256;37235;-77
2023/01/10 10:20:10;;;;;;;33.70;21.20;;;;;;;6.47;88.09;100252.25;108893;1269;37503;-76
2023/01/10 10:23:11;;;;;;;32.40;22.00;;;;;;;6.50;88.17;100253.04;108848;1274;38245;-75
2023/01/10 10:26:02;;;;;;;32.20;20.30;;;;;;;6.53;88.31;100256.27;108855;1259;37299;-75
2023/01/10 10:29:00;;;;;;;33.00;20.00;;;;;;;6.57;88.16;100256.36;108811;1256;37276;-77
2023/01/10 10:31:54;;;;;;;33.10;20.20;;;;;;;6.58;87.87;100262.91;108763;1267;38211;-74
2023/01/10 10:34:35;;;;;;;32.90;21.60;;;;;;;6.62;87.92;100261.09;108872;1274;37011;-74
2023/01/10 10:37:19;;;;;;;34.30;21.70;;;;;;;6.65;87.92;100260.84;108813;1255;36092;-76
2023/01/10 10:40:01;;;;;;;31.90;20.90;;;;;;;6.68;88.10;100261.98;108826;1274;36842;-73
2023/01/10 10:42:45;;;;;;;32.10;19.60;;;;;;;6.71;87.82;100260.19;108504;1258;174787;-75
2023/01/10 10:45:27;;;;;;;34.80;20.20;;;;;;;6.71;87.46;100265.36;108845;1274;38520;-76
2023/01/10 10:48:05;;;;;;;34.00;21.70;;;;;;;6.76;87.67;100264.40;108821;1251;36196;-78
2023/01/10 10:50:50;;;;;;;35.10;23.00;;;;;;;6.81;87.79;100267.21;108831;1253;37093;-76
2023/01/10 10:53:24;;;;;;;33.90;21.30;;;;;;;6.85;87.70;100267.63;108780;1274;37480;-75
2023/01/10 10:55:59;;;;;;;34.70;20.90;;;;;;;6.88;87.36;100270.85;108839;1253;37064;-74
2023/01/10 10:58:34;;;;;;;27.10;19.40;;;;;;;6.89;87.13;100276.56;108824;1256;36159;-74
2023/01/10 11:01:10;;;;;;;30.20;20.90;;;;;;;6.89;87.17;100279.86;108855;1265;36963;-76
2023/01/10 11:03:49;;;;;;;34.20;20.60;;;;;;;6.92;87.30;100281.16;108827;1255;36995;-75
2023/01/10 11:06:24;;;;;;;31.60;21.00;;;;;;;6.93;87.19;100284.09;108775;1274;38667;-75
2023/01/10 11:09:01;;;;;;;30.60;20.20;;;;;;;6.91;86.75;100284.48;108806;1252;37221;-75
2023/01/10 11:11:38;;;;;;;30.30;20.60;;;;;;;6.88;86.54;100281.26;108842;1274;36119;-74
2023/01/10 11:14:14;;;;;;;33.20;21.00;;;;;;;6.87;86.68;100278.15;108819;1263;37251;-74
2023/01/10 11:16:48;;;;;;;37.40;23.00;;;;;;;6.88;86.64;100277.61;108837;1274;37088;-73
2023/01/10 11:19:29;;;;;;;46.30;27.80;;;;;;;6.86;86.48;100285.83;108744;1259;37041;-73
2023/01/10 11:22:06;;;;;;;36.70;23.30;;;;;;;6.87;86.60;100288.92;108810;1253;37339;-76
2023/01/10 11:24:52;;;;;;;33.50;21.80;;;;;;;6.85;86.39;100301.29;108809;1261;37613;-73
2023/01/10 11:27:38;;;;;;;31.40;19.70;;;;;;;6.82;86.35;100305.34;108893;1257;36963;-75
2023/01/10 11:30:24;;;;;;;34.30;20.80;;;;;;;6.80;86.50;100311.62;108870;1270;36972;-75
2023/01/10 11:33:10;;;;;;;32.70;21.70;;;;;;;6.78;86.43;100314.61;108877;1274;37094;-78
2023/01/10 11:36:04;;;;;;;33.40;20.70;;;;;;;6.79;86.72;100315.80;108143;1265;922598;-74
2023/01/10 11:38:43;;;;;;;34.30;21.10;;;;;;;6.80;86.71;100325.49;108705;1256;37736;-73
2023/01/10 11:41:33;;;;;;;31.30;19.50;;;;;;;6.78;86.49;100334.38;108788;1258;187239;-73
2023/01/10 11:44:28;;;;;;;27.90;19.80;;;;;;;6.78;86.67;100338.05;108873;1274;37145;-74
2023/01/10 11:47:13;;;;;;;30.20;20.60;;;;;;;6.79;86.69;100337.65;108875;1257;37467;-75
2023/01/10 11:49:54;;;;;;;34.70;20.80;;;;;;;6.77;86.66;100335.96;108933;1255;36949;-76
2023/01/10 11:52:31;;;;;;;35.00;22.60;;;;;;;6.76;86.67;100337.54;108798;1266;37662;-75
2023/01/10 11:55:17;;;;;;;35.40;22.80;;;;;;;6.79;86.77;100342.86;108875;1274;36182;-75
2023/01/10 11:58:05;;;;;;;30.50;21.10;;;;;;;6.80;86.91;100345.61;108859;1274;37285;-75
2023/01/10 12:00:46;;;;;;;33.90;20.80;;;;;;;6.84;86.57;100348.48;108888;1274;37420;-75
2023/01/10 12:03:28;;;;;;;33.00;21.20;;;;;;;6.84;86.69;100350.02;108844;1263;36210;-75
2023/01/10 12:06:21;;;;;;;40.20;22.40;;;;;;;6.84;86.61;100349.33;108931;1252;36948;-73
2023/01/10 12:09:04;;;;;;;34.00;21.40;;;;;;;6.83;86.71;100354.55;108809;1258;38557;-73
2023/01/10 12:11:38;;;;;;;34.30;20.60;;;;;;;6.83;86.62;100361.31;108782;1274;36135;-76
2023/01/10 12:14:22;;;;;;;36.30;21.90;;;;;;;6.84;86.71;100362.84;108804;1260;36150;-77
2023/01/10 12:17:05;;;;;;;33.90;21.80;;;;;;;6.86;86.69;100365.59;108840;1255;37329;-73
2023/01/10 12:19:41;;;;;;;33.90;21.70;;;;;;;6.88;86.56;100369.88;108755;1257;37621;-75